Cook Springs, Alabama
Current Conditions -  °F | °C
As of 1:55 PM on Saturday 25 Oct 2014 (Local Time) from KASN Reporting Station
Clear Clear  
Wind Chill: 75°   Ceiling: Unl
Heat Index: 75°   Visibility: 10mi
Dew Point: 49°   Wind: 3mph
Humidity: 39%   Direction: 360°N
Pressure: 30.07"   Gusts: NA
Location:  33.59°N, 86.39°W
Report Text: KASN 251855Z AUTO 36003KT 10SM CLR 24/09 A3007 RMK AO2 T02400094
Loading
Personal Weather Stations






























Interactive Weather Map
Tropical Storm Tracking
New forecast layout! Learn more

10-Day Weather Forecast

Advertisements
Track Severe Weather on mobile